createdAt,value
2023-06-21T00:01:01.819Z,13.80
2023-06-21T00:06:41.342Z,16.00
2023-06-21T00:09:15.523Z,13.60
2023-06-21T00:11:48.068Z,14.10
2023-06-21T00:14:42.393Z,14.20
2023-06-21T00:17:21.798Z,12.60
2023-06-21T00:20:07.696Z,13.40
2023-06-21T00:23:04.089Z,15.50
2023-06-21T00:25:39.648Z,13.30
2023-06-21T00:28:29.045Z,13.10
2023-06-21T00:31:33.342Z,13.70
2023-06-21T00:34:09.666Z,11.80
2023-06-21T00:36:45.664Z,12.70
2023-06-21T00:39:52.549Z,12.10
2023-06-21T00:42:34.142Z,11.80
2023-06-21T00:45:09.746Z,14.30
2023-06-21T00:47:50.406Z,14.30
2023-06-21T00:50:27.358Z,12.30
2023-06-21T00:53:10.465Z,14.50
2023-06-21T00:55:41.817Z,13.10
2023-06-21T00:58:13.814Z,14.80
2023-06-21T01:00:47.158Z,13.70
2023-06-21T01:03:18.439Z,15.00
2023-06-21T01:06:03.864Z,13.80
2023-06-21T01:08:43.310Z,12.20
2023-06-21T01:11:28.362Z,13.50
2023-06-21T01:14:28.764Z,12.40
2023-06-21T01:24:44.035Z,13.30
2023-06-21T01:27:53.723Z,13.30
2023-06-21T01:30:35.774Z,14.90
2023-06-21T01:33:20.102Z,14.50
2023-06-21T01:35:57.699Z,14.70
2023-06-21T01:38:31.101Z,14.00
2023-06-21T01:41:02.802Z,14.40
2023-06-21T01:43:35.440Z,13.80
2023-06-21T01:46:37.118Z,14.30
2023-06-21T01:49:12.018Z,14.90
2023-06-21T01:51:49.468Z,16.80
2023-06-21T01:54:21.709Z,14.50
2023-06-21T01:57:02.763Z,16.00
2023-06-21T01:59:35.946Z,15.80
2023-06-21T02:02:11.796Z,15.70
2023-06-21T02:04:50.688Z,15.60
2023-06-21T02:07:23.333Z,16.00
2023-06-21T02:09:54.858Z,14.30
2023-06-21T02:12:36.716Z,15.90
2023-06-21T02:15:18.256Z,16.20
2023-06-21T02:17:51.121Z,15.50
2023-06-21T02:20:30.407Z,13.80
2023-06-21T02:23:11.451Z,17.20
2023-06-21T02:25:57.699Z,14.60
2023-06-21T02:28:36.653Z,16.60
2023-06-21T02:31:37.014Z,14.20
2023-06-21T02:34:10.128Z,15.40
2023-06-21T02:36:43.480Z,16.00
2023-06-21T02:40:00.596Z,15.00
2023-06-21T02:43:05.100Z,14.70
2023-06-21T02:45:37.922Z,14.80
2023-06-21T02:48:11.344Z,15.40
2023-06-21T02:50:50.919Z,14.10
2023-06-21T02:53:34.065Z,15.00
2023-06-21T02:56:05.675Z,14.10
2023-06-21T02:58:43.231Z,16.20
2023-06-21T03:01:18.772Z,13.60
2023-06-21T03:03:53.647Z,16.80
2023-06-21T03:06:49.735Z,16.10
2023-06-21T03:09:49.389Z,15.00
2023-06-21T03:12:45.689Z,15.00
2023-06-21T03:15:21.059Z,15.30
2023-06-21T03:18:39.574Z,14.40
2023-06-21T03:21:23.467Z,15.10
2023-06-21T03:23:59.042Z,15.10
2023-06-21T03:26:51.554Z,15.00
2023-06-21T03:29:47.252Z,14.80
2023-06-21T03:32:17.680Z,15.80
2023-06-21T03:34:59.467Z,14.40
2023-06-21T03:37:41.808Z,15.70
2023-06-21T03:40:34.225Z,16.00
2023-06-21T03:47:07.142Z,15.30
2023-06-21T03:50:00.249Z,16.20
2023-06-21T03:52:52.957Z,15.10
2023-06-21T03:55:28.312Z,13.70
2023-06-21T03:58:05.830Z,16.20
2023-06-21T04:00:39.900Z,14.10
2023-06-21T04:06:09.455Z,20.20
2023-06-21T04:08:45.997Z,16.70
2023-06-21T04:11:22.054Z,16.40
2023-06-21T04:14:00.537Z,18.30
2023-06-21T04:16:46.887Z,17.60
2023-06-21T04:19:26.691Z,16.20
2023-06-21T04:22:24.624Z,18.40
2023-06-21T04:25:19.684Z,17.60
2023-06-21T04:27:54.758Z,16.60
2023-06-21T04:31:07.211Z,19.40
2023-06-21T04:33:44.236Z,18.50
2023-06-21T04:36:27.127Z,19.70
2023-06-21T04:38:58.050Z,18.90
2023-06-21T04:41:34.219Z,19.30
2023-06-21T04:44:09.670Z,17.50
2023-06-21T04:46:46.013Z,17.90
2023-06-21T04:49:29.006Z,17.00
2023-06-21T04:52:03.140Z,18.50
2023-06-21T04:54:37.780Z,19.70
2023-06-21T04:57:19.060Z,17.80
2023-06-21T05:00:45.221Z,18.70
2023-06-21T05:03:24.866Z,17.90
2023-06-21T05:06:05.470Z,15.70
2023-06-21T05:09:01.639Z,16.30
2023-06-21T05:12:04.217Z,15.40
2023-06-21T05:14:46.471Z,16.00
2023-06-21T05:17:18.011Z,17.90
2023-06-21T05:20:04.499Z,16.50
2023-06-21T05:22:45.371Z,17.10
2023-06-21T05:25:21.413Z,15.80
2023-06-21T05:28:02.316Z,20.30
2023-06-21T05:30:33.152Z,17.20
2023-06-21T05:33:29.158Z,16.50
2023-06-21T05:36:53.859Z,15.40
2023-06-21T05:39:28.451Z,18.10
2023-06-21T05:42:15.541Z,15.50
2023-06-21T05:45:13.804Z,16.90
2023-06-21T05:47:50.565Z,19.70
2023-06-21T05:50:34.201Z,16.30
2023-06-21T05:53:20.899Z,16.70
2023-06-21T05:56:01.142Z,18.20
2023-06-21T05:58:45.568Z,18.60
2023-06-21T06:01:25.148Z,17.20
2023-06-21T06:04:20.386Z,16.50
2023-06-21T06:07:14.592Z,15.60
2023-06-21T06:09:53.374Z,16.20
2023-06-21T06:13:07.028Z,18.40
2023-06-21T06:16:19.022Z,17.80
2023-06-21T06:20:01.405Z,16.60
2023-06-21T06:22:46.315Z,16.30
2023-06-21T06:25:49.291Z,16.00
2023-06-21T06:28:26.938Z,17.20
2023-06-21T06:31:18.664Z,19.20
2023-06-21T06:34:12.308Z,15.90
2023-06-21T06:37:32.725Z,16.30
2023-06-21T06:40:23.087Z,15.20
2023-06-21T06:43:28.349Z,18.00
2023-06-21T06:46:18.365Z,16.50
2023-06-21T06:49:06.363Z,17.80
2023-06-21T06:51:59.634Z,15.90
2023-06-21T07:22:40.614Z,15.30
2023-06-21T07:30:17.438Z,15.50
2023-06-21T07:34:27.777Z,16.50
2023-06-21T07:41:36.872Z,16.50
2023-06-21T07:48:21.442Z,15.50
2023-06-21T07:51:14.318Z,14.10
2023-06-21T07:58:35.562Z,14.20
2023-06-21T08:01:22.073Z,14.10
2023-06-21T08:08:01.933Z,16.10
2023-06-21T08:10:39.856Z,14.40
2023-06-21T08:13:43.192Z,13.80
2023-06-21T08:17:03.465Z,14.70
2023-06-21T08:19:49.043Z,13.60
2023-06-21T08:22:30.349Z,15.90
2023-06-21T08:25:08.922Z,16.30
2023-06-21T08:27:50.875Z,14.50
2023-06-21T08:30:38.085Z,14.00
2023-06-21T08:35:59.937Z,13.90
2023-06-21T08:38:36.688Z,14.40
2023-06-21T08:41:07.328Z,14.80
2023-06-21T08:44:11.076Z,14.10
2023-06-21T08:47:01.899Z,16.20
2023-06-21T08:49:43.532Z,14.00
2023-06-21T08:52:48.299Z,15.50
2023-06-21T08:55:32.083Z,13.70
2023-06-21T08:58:14.103Z,14.00
2023-06-21T09:01:15.471Z,13.10
2023-06-21T09:04:17.560Z,15.00
2023-06-21T09:10:32.884Z,15.00
2023-06-21T09:13:08.647Z,13.00
2023-06-21T09:16:29.763Z,14.60
2023-06-21T09:19:09.261Z,13.10
2023-06-21T09:21:46.062Z,12.10
2023-06-21T09:28:35.604Z,10.50
2023-06-21T09:31:34.833Z,11.60
2023-06-21T09:34:17.363Z,13.40
2023-06-21T09:40:33.143Z,14.20
2023-06-21T09:43:31.954Z,14.30
2023-06-21T09:46:52.671Z,12.70
2023-06-21T09:49:48.052Z,14.00
2023-06-21T09:52:50.801Z,13.90
2023-06-21T09:55:49.440Z,13.50
2023-06-21T09:58:44.086Z,9.90
2023-06-21T10:01:37.197Z,7.90
2023-06-21T10:04:56.212Z,6.70
2023-06-21T10:07:48.327Z,6.80
2023-06-21T10:10:54.963Z,7.80
2023-06-21T10:13:59.274Z,6.90
2023-06-21T10:16:45.765Z,8.90
2023-06-21T10:19:25.779Z,7.80
2023-06-21T10:22:10.159Z,7.60
2023-06-21T10:24:50.990Z,6.90
2023-06-21T10:28:24.443Z,6.20
2023-06-21T10:31:04.614Z,7.70
2023-06-21T10:39:33.109Z,6.80
2023-06-21T10:42:33.051Z,7.30
2023-06-21T10:45:09.705Z,6.60
2023-06-21T10:48:45.284Z,6.90
2023-06-21T10:51:58.059Z,5.80
2023-06-21T10:55:28.989Z,6.30
2023-06-21T10:58:10.428Z,6.00
2023-06-21T11:01:51.912Z,5.50
2023-06-21T11:05:02.292Z,5.60
2023-06-21T11:07:49.164Z,7.80
2023-06-21T11:10:54.523Z,6.90
2023-06-21T11:13:43.867Z,6.50
2023-06-21T11:16:22.501Z,8.10
2023-06-21T11:19:03.165Z,9.70
2023-06-21T11:21:58.823Z,10.30
2023-06-21T11:30:34.668Z,7.60
2023-06-21T11:33:02.552Z,9.50
2023-06-21T11:35:51.346Z,9.50
2023-06-21T11:38:20.476Z,7.90
2023-06-21T11:40:48.236Z,7.50
2023-06-21T11:43:20.009Z,7.70
2023-06-21T11:45:57.088Z,8.00
2023-06-21T11:48:28.781Z,9.70
2023-06-21T11:50:58.243Z,10.50
2023-06-21T11:53:31.783Z,8.40
2023-06-21T11:56:01.476Z,8.40
2023-06-21T11:58:29.327Z,10.00
2023-06-21T12:00:57.277Z,11.70
2023-06-21T12:03:29.181Z,9.00
2023-06-21T12:05:59.047Z,11.20
2023-06-21T12:08:37.713Z,8.70
2023-06-21T12:11:09.312Z,15.20
2023-06-21T12:13:38.685Z,9.10
2023-06-21T12:16:08.027Z,9.30
2023-06-21T12:18:37.749Z,8.40
2023-06-21T12:21:06.620Z,8.90
2023-06-21T12:23:35.859Z,9.30
2023-06-21T12:26:04.954Z,8.20
2023-06-21T12:28:33.622Z,9.10
2023-06-21T12:31:06.288Z,9.10
2023-06-21T12:33:38.414Z,9.00
2023-06-21T12:36:32.292Z,8.50
2023-06-21T12:39:01.493Z,7.90
2023-06-21T12:41:30.942Z,7.50
2023-06-21T12:44:03.601Z,8.00
2023-06-21T12:46:41.056Z,7.70
2023-06-21T12:49:09.745Z,7.40
2023-06-21T12:51:38.065Z,8.60
2023-06-21T12:54:06.726Z,8.30
2023-06-21T12:56:42.292Z,7.20
2023-06-21T12:59:10.037Z,9.10
2023-06-21T13:01:38.605Z,9.10
2023-06-21T13:04:09.865Z,7.80
2023-06-21T13:06:39.673Z,7.50
2023-06-21T13:09:07.754Z,7.50
2023-06-21T13:11:35.714Z,7.10
2023-06-21T13:14:04.277Z,6.40
2023-06-21T13:16:31.989Z,6.40
2023-06-21T13:19:00.136Z,7.10
2023-06-21T13:21:29.479Z,10.60
2023-06-21T13:24:00.678Z,7.40
2023-06-21T13:26:28.603Z,8.70
2023-06-21T13:28:57.462Z,7.80
2023-06-21T13:31:25.632Z,8.30
2023-06-21T13:33:54.925Z,7.30
2023-06-21T13:36:24.102Z,8.90
2023-06-21T13:38:51.892Z,9.60
2023-06-21T13:41:19.878Z,9.00
2023-06-21T13:43:48.276Z,7.20
2023-06-21T13:46:16.586Z,7.60
2023-06-21T13:48:45.636Z,7.20
2023-06-21T13:51:13.452Z,7.00
2023-06-21T13:53:45.373Z,8.40
2023-06-21T13:56:13.280Z,8.10
2023-06-21T13:58:46.389Z,6.60
2023-06-21T14:01:14.160Z,8.40
2023-06-21T14:03:42.265Z,7.90
2023-06-21T14:06:10.176Z,6.60
2023-06-21T14:08:37.881Z,7.40
2023-06-21T14:11:05.494Z,6.20
2023-06-21T14:13:33.194Z,7.30
2023-06-21T14:16:02.072Z,7.50
2023-06-21T14:18:42.071Z,7.30
2023-06-21T14:21:15.709Z,7.00
2023-06-21T14:23:44.725Z,8.20
2023-06-21T14:26:12.592Z,6.50
2023-06-21T14:28:42.358Z,7.40
2023-06-21T14:31:13.716Z,7.60
2023-06-21T14:33:41.366Z,7.00
2023-06-21T14:36:09.285Z,9.10
2023-06-21T14:38:40.176Z,7.30
2023-06-21T14:41:08.878Z,7.60
2023-06-21T14:43:37.152Z,7.50
2023-06-21T14:46:05.627Z,7.10
2023-06-21T14:48:36.106Z,6.60
2023-06-21T14:51:13.195Z,7.30
2023-06-21T14:53:41.825Z,7.30
2023-06-21T14:56:09.682Z,8.40
2023-06-21T14:58:37.561Z,6.90
2023-06-21T15:01:06.807Z,6.50
2023-06-21T15:03:35.548Z,7.60
2023-06-21T15:06:06.556Z,6.60
2023-06-21T15:08:35.584Z,6.10
2023-06-21T15:11:03.425Z,8.50
2023-06-21T15:13:31.674Z,8.70
2023-06-21T15:16:01.693Z,19.50
2023-06-21T15:18:29.531Z,7.90
2023-06-21T15:20:57.114Z,8.20
2023-06-21T15:23:26.980Z,7.90
2023-06-21T15:25:54.979Z,6.80
2023-06-21T15:28:22.728Z,9.80
2023-06-21T15:30:50.629Z,8.40
2023-06-21T15:33:18.852Z,6.40
2023-06-21T15:35:48.982Z,7.50
2023-06-21T15:38:18.061Z,8.10
2023-06-21T15:40:45.836Z,6.80
2023-06-21T15:43:14.919Z,6.90
2023-06-21T15:45:43.165Z,11.60
2023-06-21T15:48:14.683Z,6.40
2023-06-21T15:50:44.182Z,8.00
2023-06-21T15:53:13.911Z,6.50
2023-06-21T15:55:41.781Z,7.10
2023-06-21T15:58:12.507Z,6.70
2023-06-21T16:00:42.396Z,6.90
2023-06-21T16:03:11.408Z,7.60
2023-06-21T16:05:39.576Z,6.30
2023-06-21T16:08:08.373Z,7.20
2023-06-21T16:10:38.246Z,6.30
2023-06-21T16:13:07.488Z,5.80
2023-06-21T16:15:37.181Z,6.30
2023-06-21T16:18:05.185Z,6.50
2023-06-21T16:20:34.611Z,6.50
2023-06-21T16:23:03.767Z,6.80
2023-06-21T16:25:31.457Z,6.80
2023-06-21T16:27:59.775Z,5.80
2023-06-21T16:30:28.625Z,6.70
2023-06-21T16:33:00.415Z,6.20
2023-06-21T16:37:58.962Z,6.10
2023-06-21T16:40:26.854Z,6.20
2023-06-21T16:42:54.833Z,6.60
2023-06-21T16:45:24.934Z,5.50
2023-06-21T16:47:58.340Z,6.30
2023-06-21T16:50:27.475Z,6.90
2023-06-21T16:52:56.942Z,8.80
2023-06-21T16:55:27.680Z,7.10
2023-06-21T16:57:56.107Z,6.80
2023-06-21T17:00:25.347Z,6.90
2023-06-21T17:02:56.051Z,8.30
2023-06-21T17:05:30.202Z,9.40
2023-06-21T17:07:59.788Z,11.00
2023-06-21T17:10:27.842Z,15.00
2023-06-21T17:12:56.003Z,12.00
2023-06-21T17:15:24.586Z,10.60
2023-06-21T17:17:54.087Z,7.60
2023-06-21T17:20:21.838Z,6.80
2023-06-21T17:22:51.268Z,7.80
2023-06-21T17:25:19.191Z,6.80
2023-06-21T17:27:46.927Z,7.60
2023-06-21T17:30:14.724Z,8.90
2023-06-21T17:32:42.763Z,6.70
2023-06-21T17:35:13.566Z,8.70
2023-06-21T17:37:41.603Z,9.00
2023-06-21T17:40:12.410Z,9.20
2023-06-21T17:42:41.366Z,9.10
2023-06-21T17:45:10.259Z,6.80
2023-06-21T17:47:39.410Z,7.30
2023-06-21T17:50:09.277Z,8.80
2023-06-21T17:52:37.198Z,8.20
2023-06-21T17:55:05.297Z,8.40
2023-06-21T17:57:32.973Z,7.50
2023-06-21T18:00:00.846Z,7.00
2023-06-21T18:02:28.955Z,7.10
2023-06-21T18:05:01.125Z,8.00
2023-06-21T18:07:31.216Z,10.50
2023-06-21T18:09:59.169Z,9.00
2023-06-21T18:12:28.250Z,8.90
2023-06-21T18:14:55.922Z,7.30
2023-06-21T18:17:24.090Z,9.90
2023-06-21T18:19:51.783Z,8.80
2023-06-21T18:22:26.824Z,9.60
2023-06-21T18:25:07.584Z,8.60
2023-06-21T18:27:35.783Z,7.20
2023-06-21T18:30:08.824Z,8.50
2023-06-21T18:32:39.084Z,21.50
2023-06-21T18:35:13.837Z,23.40
2023-06-21T18:37:42.178Z,20.70
2023-06-21T18:40:11.083Z,21.40
2023-06-21T18:42:48.484Z,15.80
2023-06-21T18:45:16.291Z,12.90
2023-06-21T18:47:44.263Z,11.80
2023-06-21T18:50:12.070Z,11.10
2023-06-21T18:52:41.292Z,9.60
2023-06-21T18:55:14.704Z,12.10
2023-06-21T18:57:42.429Z,10.60
2023-06-21T19:00:13.280Z,8.80
2023-06-21T19:02:41.109Z,11.20
2023-06-21T19:05:09.352Z,10.00
2023-06-21T19:07:37.070Z,10.20
2023-06-21T19:10:05.263Z,9.40
2023-06-21T19:12:38.963Z,10.30
2023-06-21T19:15:08.486Z,12.80
2023-06-21T19:17:37.072Z,16.10
2023-06-21T19:20:06.445Z,18.90
2023-06-21T19:22:34.405Z,17.90
2023-06-21T19:25:02.272Z,17.50
2023-06-21T19:27:30.028Z,19.50
2023-06-21T19:34:31.263Z,24.90
2023-06-21T19:36:59.509Z,22.00
2023-06-21T19:39:28.316Z,20.10
2023-06-21T19:42:05.509Z,17.70
2023-06-21T19:44:33.529Z,12.90
2023-06-21T19:47:01.257Z,15.00
2023-06-21T19:49:29.139Z,15.90
2023-06-21T19:51:57.418Z,16.60
2023-06-21T19:54:26.918Z,16.60
2023-06-21T19:56:54.760Z,19.00
2023-06-21T19:59:25.255Z,18.70
2023-06-21T20:06:05.941Z,17.30
2023-06-21T20:08:48.433Z,17.10
2023-06-21T20:11:16.671Z,18.90
2023-06-21T20:13:47.722Z,16.60
2023-06-21T20:20:47.896Z,13.70
2023-06-21T20:23:16.566Z,14.50
2023-06-21T20:25:45.716Z,16.00
2023-06-21T20:28:13.507Z,15.80
2023-06-21T20:35:14.071Z,10.60
2023-06-21T20:37:42.481Z,13.90
2023-06-21T21:24:25.947Z,9.60
2023-06-21T23:18:02.652Z,10.10
2023-06-21T23:50:50.786Z,9.60
2023-06-21T23:53:25.448Z,9.70
